createdAt,value
2023-04-22T00:02:29.671Z,96464.38
2023-04-22T00:05:20.439Z,96459.00
2023-04-22T00:08:09.089Z,96468.78
2023-04-22T00:10:57.818Z,96461.50
2023-04-22T00:13:46.269Z,96463.53
2023-04-22T00:16:36.359Z,96457.88
2023-04-22T00:19:25.109Z,96463.25
2023-04-22T00:22:13.482Z,96458.16
2023-04-22T00:25:01.888Z,96462.91
2023-04-22T00:27:50.367Z,96453.69
2023-04-22T00:30:38.772Z,96467.19
2023-04-22T00:33:28.542Z,96465.28
2023-04-22T00:36:16.948Z,96467.97
2023-04-22T00:39:06.411Z,96467.97
2023-04-22T00:41:55.288Z,96463.34
2023-04-22T00:44:43.833Z,96456.38
2023-04-22T00:47:32.700Z,96453.03
2023-04-22T00:50:22.479Z,96455.72
2023-04-22T00:53:10.930Z,96458.41
2023-04-22T00:55:59.760Z,96461.56
2023-04-22T00:58:48.315Z,96460.97
2023-04-22T01:01:37.458Z,96461.56
2023-04-22T01:04:25.945Z,96463.78
2023-04-22T01:07:15.832Z,96468.22
2023-04-22T01:10:07.476Z,96459.22
2023-04-22T01:12:55.887Z,96472.59
2023-04-22T01:15:44.531Z,96469.91
2023-04-22T01:18:33.656Z,96473.84
2023-04-22T01:21:22.856Z,96475.44
2023-04-22T01:24:12.671Z,96466.88
2023-04-22T01:27:02.146Z,96459.25
2023-04-22T01:29:50.652Z,96463.19
2023-04-22T01:32:40.610Z,96466.06
2023-04-22T01:35:30.519Z,96473.03
2023-04-22T01:38:19.147Z,96464.97
2023-04-22T01:41:08.980Z,96465.41
2023-04-22T01:43:59.134Z,96465.84
2023-04-22T01:46:47.639Z,96466.44
2023-04-22T01:49:36.184Z,96475.00
2023-04-22T01:52:24.587Z,96464.88
2023-04-22T01:55:13.294Z,96469.75
2023-04-22T01:58:03.130Z,96473.38
2023-04-22T02:00:51.600Z,96467.00
2023-04-22T02:03:40.408Z,96463.06
2023-04-22T02:06:29.359Z,96464.16
2023-04-22T02:09:17.768Z,96470.63
2023-04-22T02:12:06.410Z,96462.88
2023-04-22T02:14:56.212Z,96466.34
2023-04-22T02:17:44.897Z,96469.53
2023-04-22T02:20:33.826Z,96461.59
2023-04-22T02:23:22.342Z,96467.41
2023-04-22T02:26:11.475Z,96458.81
2023-04-22T02:28:59.903Z,96460.34
2023-04-22T02:31:50.223Z,96463.28
2023-04-22T02:34:38.743Z,96456.94
2023-04-22T02:37:27.142Z,96463.41
2023-04-22T02:40:16.599Z,96460.34
2023-04-22T02:43:05.403Z,96464.38
2023-04-22T02:45:53.918Z,96461.69
2023-04-22T02:48:43.777Z,96466.25
2023-04-22T02:51:32.876Z,96465.69
2023-04-22T02:54:21.308Z,96463.25
2023-04-22T02:57:09.792Z,96457.53
2023-04-22T02:59:58.378Z,96472.44
2023-04-22T03:02:46.971Z,96468.66
2023-04-22T03:05:38.004Z,96470.44
2023-04-22T03:08:26.657Z,96471.25
2023-04-22T03:11:15.135Z,96475.03
2023-04-22T03:14:03.839Z,96472.09
2023-04-22T03:16:52.388Z,96475.84
2023-04-22T03:19:41.383Z,96471.09
2023-04-22T03:22:31.723Z,96462.38
2023-04-22T03:25:22.433Z,96459.97
2023-04-22T03:28:14.338Z,96464.38
2023-04-22T03:31:02.775Z,96456.75
2023-04-22T03:33:51.636Z,96454.84
2023-04-22T03:36:46.791Z,96458.25
2023-04-22T03:39:36.768Z,96453.50
2023-04-22T03:42:25.990Z,96448.13
2023-04-22T03:45:14.384Z,96455.50
2023-04-22T03:48:07.477Z,96452.94
2023-04-22T03:51:02.575Z,96449.19
2023-04-22T03:53:54.575Z,96443.75
2023-04-22T03:56:46.618Z,96440.31
2023-04-22T03:59:35.218Z,96453.91
2023-04-22T04:02:24.020Z,96455.59
2023-04-22T04:05:12.772Z,96455.47
2023-04-22T04:08:01.965Z,96459.03
2023-04-22T04:10:50.655Z,96464.91
2023-04-22T04:13:40.690Z,96461.72
2023-04-22T04:16:48.996Z,96468.28
2023-04-22T04:19:45.801Z,96467.81
2023-04-22T04:22:35.262Z,96470.09
2023-04-22T04:25:23.835Z,96476.03
2023-04-22T04:28:12.856Z,96472.97
2023-04-22T04:31:03.912Z,96472.06
2023-04-22T04:33:54.008Z,96470.88
2023-04-22T04:36:42.613Z,96473.88
2023-04-22T04:39:39.179Z,96470.28
2023-04-22T04:42:30.411Z,96473.28
2023-04-22T04:45:23.994Z,96471.69
2023-04-22T04:48:14.831Z,96474.84
2023-04-22T04:51:09.479Z,96479.13
2023-04-22T04:54:03.373Z,96482.31
2023-04-22T04:56:57.614Z,96492.94
2023-04-22T04:59:46.957Z,96492.31
2023-04-22T05:02:36.425Z,96489.75
2023-04-22T05:05:26.572Z,96488.66
2023-04-22T05:08:15.232Z,96495.28
2023-04-22T05:11:06.560Z,96486.38
2023-04-22T05:13:55.410Z,96486.84
2023-04-22T05:16:50.715Z,96490.34
2023-04-22T05:19:39.976Z,96489.53
2023-04-22T05:22:30.017Z,96486.28
2023-04-22T05:25:18.502Z,96483.78
2023-04-22T05:28:15.559Z,96482.69
2023-04-22T05:31:10.408Z,96482.97
2023-04-22T05:33:59.179Z,96477.50
2023-04-22T05:36:47.581Z,96483.38
2023-04-22T05:39:37.667Z,96481.22
2023-04-22T05:42:29.595Z,96481.31
2023-04-22T05:45:18.510Z,96484.78
2023-04-22T05:48:07.284Z,96495.09
2023-04-22T05:51:00.599Z,96497.06
2023-04-22T05:53:51.106Z,96503.53
2023-04-22T05:56:41.198Z,96499.16
2023-04-22T05:59:29.637Z,96507.00
2023-04-22T06:02:18.626Z,96506.25
2023-04-22T06:05:08.473Z,96506.19
2023-04-22T06:07:57.016Z,96504.97
2023-04-22T06:10:45.738Z,96508.13
2023-04-22T06:13:35.583Z,96509.44
2023-04-22T06:16:24.238Z,96502.06
2023-04-22T06:19:12.855Z,96508.69
2023-04-22T06:22:01.453Z,96494.69
2023-04-22T06:24:49.941Z,96491.59
2023-04-22T06:27:38.894Z,96503.50
2023-04-22T06:30:29.264Z,96508.06
2023-04-22T06:33:17.770Z,96512.94
2023-04-22T06:36:06.985Z,96505.25
2023-04-22T06:38:56.950Z,96513.19
2023-04-22T06:41:57.320Z,96519.09
2023-04-22T06:45:13.013Z,96525.72
2023-04-22T06:48:23.116Z,96525.94
2023-04-22T06:51:33.746Z,96530.19
2023-04-22T06:54:23.163Z,96533.47
2023-04-22T06:57:12.524Z,96536.78
2023-04-22T07:00:00.907Z,96532.25
2023-04-22T07:02:49.364Z,96533.72
2023-04-22T07:05:39.971Z,96530.69
2023-04-22T07:08:29.985Z,96532.59
2023-04-22T07:11:18.444Z,96534.16
2023-04-22T07:14:23.469Z,96532.97
2023-04-22T07:17:12.068Z,96526.34
2023-04-22T07:20:00.453Z,96516.91
2023-04-22T07:22:50.213Z,96521.56
2023-04-22T07:25:38.662Z,96517.13
2023-04-22T07:28:27.124Z,96516.38
2023-04-22T07:31:15.853Z,96507.22
2023-04-22T07:34:04.268Z,96514.34
2023-04-22T07:36:53.581Z,96517.13
2023-04-22T07:39:43.334Z,96516.00
2023-04-22T07:42:31.756Z,96517.44
2023-04-22T07:45:20.452Z,96513.03
2023-04-22T07:48:08.824Z,96517.47
2023-04-22T07:50:57.333Z,96514.78
2023-04-22T07:53:45.738Z,96513.53
2023-04-22T07:56:35.495Z,96510.53
2023-04-22T07:59:23.880Z,96514.19
2023-04-22T08:02:12.256Z,96518.16
2023-04-22T08:05:00.753Z,96505.78
2023-04-22T08:07:49.198Z,96503.91
2023-04-22T08:10:37.584Z,96506.88
2023-04-22T08:13:27.685Z,96505.78
2023-04-22T08:16:16.262Z,96500.06
2023-04-22T08:19:04.718Z,96498.94
2023-04-22T08:21:53.608Z,96503.06
2023-04-22T08:24:41.999Z,96498.56
2023-04-22T08:27:31.418Z,96499.19
2023-04-22T08:30:21.470Z,96506.66
2023-04-22T08:33:09.871Z,96499.78
2023-04-22T08:35:58.254Z,96497.84
2023-04-22T08:38:47.830Z,96495.69
2023-04-22T08:41:38.168Z,96500.09
2023-04-22T08:44:26.958Z,96491.28
2023-04-22T08:47:17.668Z,96497.13
2023-04-22T08:50:08.638Z,96500.66
2023-04-22T08:52:56.989Z,96496.81
2023-04-22T08:55:46.404Z,96501.16
2023-04-22T08:58:35.590Z,96504.91
2023-04-22T09:01:24.253Z,96496.72
2023-04-22T09:04:16.069Z,96499.63
2023-04-22T09:07:04.964Z,96497.59
2023-04-22T09:09:54.400Z,96486.72
2023-04-22T09:12:42.755Z,96485.38
2023-04-22T09:15:31.171Z,96481.81
2023-04-22T09:18:19.596Z,96489.97
2023-04-22T09:21:09.479Z,96477.25
2023-04-22T09:24:00.605Z,96478.75
2023-04-22T09:26:49.106Z,96481.72
2023-04-22T09:29:37.829Z,96483.31
2023-04-22T09:32:26.686Z,96480.81
2023-04-22T09:35:15.071Z,96474.06
2023-04-22T09:38:06.383Z,96483.19
2023-04-22T09:40:54.735Z,96474.50
2023-04-22T09:43:44.222Z,96470.91
2023-04-22T09:46:34.950Z,96466.47
2023-04-22T09:49:23.359Z,96467.22
2023-04-22T09:52:12.091Z,96464.94
2023-04-22T09:55:01.809Z,96464.16
2023-04-22T09:57:52.892Z,96465.44
2023-04-22T10:00:42.910Z,96460.53
2023-04-22T10:03:31.813Z,96461.41
2023-04-22T10:06:20.406Z,96462.47
2023-04-22T10:09:09.753Z,96463.88
2023-04-22T10:11:59.563Z,96461.06
2023-04-22T10:14:47.899Z,96451.78
2023-04-22T10:17:39.413Z,96460.31
2023-04-22T10:20:29.238Z,96461.09
2023-04-22T10:23:20.489Z,96451.44
2023-04-22T10:26:08.856Z,96446.91
2023-04-22T10:28:58.748Z,96448.75
2023-04-22T10:31:53.069Z,96443.03
2023-04-22T10:34:41.541Z,96432.41
2023-04-22T10:37:30.833Z,96445.38
2023-04-22T10:40:22.729Z,96435.13
2023-04-22T10:43:13.997Z,96434.66
2023-04-22T10:46:03.922Z,96428.19
2023-04-22T10:48:52.322Z,96428.81
2023-04-22T10:51:41.199Z,96430.91
2023-04-22T10:55:01.564Z,96426.63
2023-04-22T10:57:52.083Z,96428.22
2023-04-22T11:00:53.392Z,96424.19
2023-04-22T11:03:43.969Z,96421.28
2023-04-22T11:06:32.517Z,96414.22
2023-04-22T11:09:21.482Z,96429.16
2023-04-22T11:12:49.615Z,96428.16
2023-04-22T11:15:39.609Z,96416.75
2023-04-22T11:18:28.196Z,96419.47
2023-04-22T11:21:18.076Z,96415.16
2023-04-22T11:24:11.002Z,96414.47
2023-04-22T11:26:59.338Z,96410.03
2023-04-22T11:30:01.222Z,96410.88
2023-04-22T11:32:51.509Z,96406.53
2023-04-22T11:35:39.863Z,96399.81
2023-04-22T11:38:29.663Z,96398.00
2023-04-22T11:41:22.126Z,96397.88
2023-04-22T11:44:10.566Z,96398.31
2023-04-22T11:46:58.945Z,96401.16
2023-04-22T11:49:56.554Z,96400.59
2023-04-22T11:52:50.632Z,96395.63
2023-04-22T11:55:41.836Z,96394.56
2023-04-22T11:58:30.261Z,96387.50
2023-04-22T12:01:19.097Z,96393.03
2023-04-22T12:04:08.621Z,96387.16
2023-04-22T12:06:56.996Z,96386.13
2023-04-22T12:09:45.412Z,96385.50
2023-04-22T12:12:37.150Z,96376.03
2023-04-22T12:15:25.632Z,96387.78
2023-04-22T12:18:14.890Z,96383.28
2023-04-22T12:21:09.969Z,96384.22
2023-04-22T12:24:00.184Z,96372.59
2023-04-22T12:26:48.603Z,96378.13
2023-04-22T12:29:38.546Z,96368.81
2023-04-22T12:32:27.913Z,96366.66
2023-04-22T12:35:16.345Z,96365.59
2023-04-22T12:38:04.722Z,96367.25
2023-04-22T12:40:53.051Z,96365.19
2023-04-22T12:43:41.405Z,96365.31
2023-04-22T12:46:31.116Z,96361.38
2023-04-22T12:49:19.509Z,96365.19
2023-04-22T12:52:08.059Z,96362.41
2023-04-22T12:54:56.437Z,96355.34
2023-04-22T12:57:46.413Z,96362.53
2023-04-22T13:00:34.794Z,96365.00
2023-04-22T13:03:24.657Z,96358.94
2023-04-22T13:06:13.173Z,96351.78
2023-04-22T13:09:01.582Z,96347.88
2023-04-22T13:11:50.035Z,96339.75
2023-04-22T13:14:39.596Z,96336.34
2023-04-22T13:17:28.127Z,96342.00
2023-04-22T13:20:17.903Z,96331.22
2023-04-22T13:23:06.274Z,96325.13
2023-04-22T13:25:55.044Z,96329.06
2023-04-22T13:28:43.409Z,96332.72
2023-04-22T13:31:31.813Z,96328.69
2023-04-22T13:34:20.190Z,96318.91
2023-04-22T13:37:09.959Z,96312.78
2023-04-22T13:39:58.357Z,96307.84
2023-04-22T13:42:46.789Z,96303.97
2023-04-22T13:45:35.153Z,96305.91
2023-04-22T13:48:23.500Z,96300.94
2023-04-22T13:51:11.816Z,96298.22
2023-04-22T13:54:02.282Z,96288.44
2023-04-22T13:56:51.056Z,96288.56
2023-04-22T13:59:39.550Z,96289.47
2023-04-22T14:02:28.133Z,96274.72
2023-04-22T14:05:16.613Z,96275.91
2023-04-22T14:08:04.994Z,96282.47
2023-04-22T14:10:55.237Z,96281.53
2023-04-22T14:13:45.095Z,96276.53
2023-04-22T14:16:33.626Z,96280.13
2023-04-22T14:19:24.261Z,96276.16
2023-04-22T14:22:12.670Z,96272.69
2023-04-22T14:25:01.769Z,96269.22
2023-04-22T14:27:51.536Z,96261.81
2023-04-22T14:30:40.208Z,96260.66
2023-04-22T14:33:29.021Z,96261.84
2023-04-22T14:36:18.601Z,96248.91
2023-04-22T14:39:07.093Z,96249.66
2023-04-22T14:41:56.933Z,96258.34
2023-04-22T14:44:46.804Z,96253.63
2023-04-22T14:47:35.192Z,96248.91
2023-04-22T14:50:23.576Z,96252.84
2023-04-22T14:53:11.979Z,96248.16
2023-04-22T14:56:00.622Z,96245.81
2023-04-22T14:58:48.976Z,96241.50
2023-04-22T15:01:41.846Z,96245.81
2023-04-22T15:04:30.290Z,96236.38
2023-04-22T15:07:18.673Z,96237.84
2023-04-22T15:10:07.926Z,96244.81
2023-04-22T15:12:56.352Z,96240.53
2023-04-22T15:15:45.442Z,96232.25
2023-04-22T15:18:35.240Z,96240.88
2023-04-22T15:21:23.609Z,96234.59
2023-04-22T15:24:11.979Z,96237.78
2023-04-22T15:27:00.781Z,96229.97
2023-04-22T15:29:49.161Z,96235.41
2023-04-22T15:32:39.088Z,96244.06
2023-04-22T15:35:28.952Z,96233.88
2023-04-22T15:38:17.605Z,96244.13
2023-04-22T15:41:06.087Z,96232.28
2023-04-22T15:43:54.482Z,96240.44
2023-04-22T15:46:43.090Z,96241.13
2023-04-22T15:49:31.482Z,96233.41
2023-04-22T15:52:21.190Z,96241.53
2023-04-22T15:55:10.128Z,96243.78
2023-04-22T15:57:58.637Z,96244.78
2023-04-22T16:00:47.051Z,96251.06
2023-04-22T16:03:35.686Z,96244.84
2023-04-22T16:06:24.163Z,96239.66
2023-04-22T16:09:13.969Z,96240.03
2023-04-22T16:12:02.497Z,96239.25
2023-04-22T16:14:50.852Z,96235.44
2023-04-22T16:17:39.279Z,96243.59
2023-04-22T16:20:27.778Z,96236.19
2023-04-22T16:23:16.366Z,96247.53
2023-04-22T16:26:06.523Z,96243.19
2023-04-22T16:28:55.338Z,96234.59
2023-04-22T16:31:43.854Z,96241.06
2023-04-22T16:34:32.182Z,96236.34
2023-04-22T16:37:20.604Z,96225.78
2023-04-22T16:40:09.849Z,96232.53
2023-04-22T16:43:05.058Z,96230.97
2023-04-22T16:45:53.399Z,96234.47
2023-04-22T16:48:41.833Z,96223.88
2023-04-22T16:51:30.180Z,96234.06
2023-04-22T16:54:18.628Z,96235.19
2023-04-22T16:57:08.225Z,96234.69
2023-04-22T16:59:57.984Z,96229.22
2023-04-22T17:02:46.626Z,96230.78
2023-04-22T17:05:35.064Z,96226.06
2023-04-22T17:08:23.490Z,96226.13
2023-04-22T17:11:12.409Z,96215.13
2023-04-22T17:14:00.773Z,96224.50
2023-04-22T17:16:50.494Z,96218.59
2023-04-22T17:19:39.055Z,96215.84
2023-04-22T17:22:28.061Z,96213.91
2023-04-22T17:25:16.435Z,96218.97
2023-04-22T17:28:04.828Z,96219.00
2023-04-22T17:30:53.199Z,96218.53
2023-04-22T17:33:42.967Z,96218.13
2023-04-22T17:36:31.718Z,96217.34
2023-04-22T17:39:20.181Z,96215.72
2023-04-22T17:42:09.309Z,96218.06
2023-04-22T17:44:57.702Z,96214.88
2023-04-22T17:47:47.624Z,96214.09
2023-04-22T17:50:37.451Z,96210.56
2023-04-22T17:53:25.738Z,96213.28
2023-04-22T17:56:14.189Z,96219.09
2023-04-22T17:59:02.573Z,96224.13
2023-04-22T18:01:51.027Z,96226.41
2023-04-22T18:04:39.422Z,96224.41
2023-04-22T18:07:29.142Z,96225.09
2023-04-22T18:10:17.563Z,96225.03
2023-04-22T18:13:06.738Z,96231.63
2023-04-22T18:15:55.195Z,96233.88
2023-04-22T18:18:43.507Z,96234.59
2023-04-22T18:21:32.690Z,96231.81
2023-04-22T18:24:22.564Z,96235.25
2023-04-22T18:27:11.017Z,96229.28
2023-04-22T18:29:59.355Z,96237.41
2023-04-22T18:32:47.821Z,96234.22
2023-04-22T18:35:36.430Z,96238.00
2023-04-22T18:38:24.814Z,96241.84
2023-04-22T18:41:14.752Z,96244.81
2023-04-22T18:44:03.109Z,96251.28
2023-04-22T18:46:53.022Z,96259.38
2023-04-22T18:49:41.386Z,96258.06
2023-04-22T18:52:29.731Z,96257.53
2023-04-22T18:55:18.078Z,96257.34
2023-04-22T18:58:07.793Z,96263.44
2023-04-22T19:00:56.320Z,96267.19
2023-04-22T19:03:45.785Z,96267.03
2023-04-22T19:06:34.247Z,96266.19
2023-04-22T19:09:22.617Z,96264.91
2023-04-22T19:12:14.686Z,96264.44
2023-04-22T19:15:04.950Z,96265.81
2023-04-22T19:17:53.322Z,96272.25
2023-04-22T19:20:41.649Z,96276.44
2023-04-22T19:23:30.085Z,96274.41
2023-04-22T19:26:18.423Z,96283.22
2023-04-22T19:29:06.845Z,96287.31
2023-04-22T19:31:58.903Z,96292.28
2023-04-22T19:34:48.103Z,96294.00
2023-04-22T19:37:36.507Z,96301.13
2023-04-22T19:40:24.820Z,96292.03
2023-04-22T19:43:13.245Z,96299.84
2023-04-22T19:46:01.603Z,96302.91
2023-04-22T19:48:52.269Z,96307.44
2023-04-22T19:51:41.024Z,96308.41
2023-04-22T19:54:29.943Z,96310.31
2023-04-22T19:57:18.456Z,96314.41
2023-04-22T20:00:11.240Z,96320.63
2023-04-22T20:03:04.240Z,96316.94
2023-04-22T20:05:55.296Z,96306.47
2023-04-22T20:08:43.817Z,96314.78
2023-04-22T20:11:32.805Z,96310.94
2023-04-22T20:14:21.389Z,96310.06
2023-04-22T20:17:10.088Z,96328.63
2023-04-22T20:19:58.730Z,96324.69
2023-04-22T20:22:50.243Z,96322.19
2023-04-22T20:25:40.717Z,96322.88
2023-04-22T20:28:43.052Z,96318.84
2023-04-22T20:31:32.258Z,96317.25
2023-04-22T20:34:21.202Z,96317.25
2023-04-22T20:37:12.386Z,96321.84
2023-04-22T20:40:04.608Z,96328.66
2023-04-22T20:42:53.081Z,96326.28
2023-04-22T20:45:41.604Z,96331.63
2023-04-22T20:48:30.289Z,96331.94
2023-04-22T20:51:19.109Z,96338.91
2023-04-22T20:54:14.670Z,96333.66
2023-04-22T20:57:15.932Z,96328.66
2023-04-22T21:00:05.745Z,96330.06
2023-04-22T21:02:54.816Z,96326.22
2023-04-22T21:05:45.897Z,96328.84
2023-04-22T21:08:35.206Z,96326.56
2023-04-22T21:11:24.323Z,96337.13
2023-04-22T21:14:14.712Z,96342.53
2023-04-22T21:17:06.062Z,96349.63
2023-04-22T21:19:57.376Z,96348.16
2023-04-22T21:22:47.573Z,96348.63
2023-04-22T21:25:36.515Z,96356.75
2023-04-22T21:28:25.416Z,96361.63
2023-04-22T21:31:15.866Z,96366.50
2023-04-22T21:34:06.572Z,96368.09
2023-04-22T21:36:55.015Z,96363.16
2023-04-22T21:39:43.500Z,96364.31
2023-04-22T21:42:31.813Z,96352.22
2023-04-22T21:45:20.233Z,96351.53
2023-04-22T21:48:10.067Z,96349.94
2023-04-22T21:50:58.389Z,96352.31
2023-04-22T21:53:46.737Z,96350.06
2023-04-22T21:56:35.893Z,96347.69
2023-04-22T21:59:24.796Z,96350.94
2023-04-22T22:02:13.280Z,96360.19
2023-04-22T22:05:03.125Z,96352.31
2023-04-22T22:07:52.940Z,96350.06
2023-04-22T22:10:42.876Z,96352.75
2023-04-22T22:13:31.192Z,96353.88
2023-04-22T22:16:20.316Z,96348.47
2023-04-22T22:19:11.227Z,96342.97
2023-04-22T22:22:01.094Z,96345.81
2023-04-22T22:24:49.681Z,96344.22
2023-04-22T22:27:40.679Z,96344.69
2023-04-22T22:30:30.004Z,96344.22
2023-04-22T22:33:18.549Z,96348.84
2023-04-22T22:36:07.215Z,96347.19
2023-04-22T22:38:56.929Z,96347.53
2023-04-22T22:41:45.285Z,96351.50
2023-04-22T22:44:33.605Z,96351.50
2023-04-22T22:47:21.853Z,96354.69
2023-04-22T22:50:11.503Z,96363.94
2023-04-22T22:53:00.614Z,96360.84
2023-04-22T22:55:50.420Z,96360.44
2023-04-22T22:58:40.757Z,96358.41
2023-04-22T23:01:29.159Z,96363.03
2023-04-22T23:04:17.894Z,96361.34
2023-04-22T23:07:06.329Z,96360.47
2023-04-22T23:09:54.621Z,96361.69
2023-04-22T23:12:44.333Z,96362.16
2023-04-22T23:15:32.650Z,96365.31
2023-04-22T23:18:21.145Z,96357.19
2023-04-22T23:21:09.570Z,96362.28
2023-04-22T23:23:58.018Z,96357.63
2023-04-22T23:26:46.916Z,96357.19
2023-04-22T23:29:38.649Z,96359.44
2023-04-22T23:32:27.644Z,96350.88
2023-04-22T23:35:16.143Z,96360.16
2023-04-22T23:38:05.398Z,96355.84
2023-04-22T23:40:53.711Z,96357.69
2023-04-22T23:43:42.129Z,96351.13
2023-04-22T23:46:31.853Z,96353.84
2023-04-22T23:49:20.470Z,96355.88
2023-04-22T23:52:10.480Z,96358.59
2023-04-22T23:54:59.446Z,96349.22
2023-04-22T23:57:48.296Z,96355.00
